sensor_id;sensor_type;location;lat;lon;timestamp;temperature;humidity
15707;DHT22;7953;54.302;10.128;2022-10-31T00:01:24;13.60;99.90
15707;DHT22;7953;54.302;10.128;2022-10-31T00:03:52;13.60;99.90
15707;DHT22;7953;54.302;10.128;2022-10-31T00:06:19;13.60;99.90
15707;DHT22;7953;54.302;10.128;2022-10-31T00:08:52;13.60;99.90
15707;DHT22;7953;54.302;10.128;2022-10-31T00:11:19;13.60;99.90
15707;DHT22;7953;54.302;10.128;2022-10-31T00:13:46;13.70;99.90
15707;DHT22;7953;54.302;10.128;2022-10-31T00:16:14;13.60;99.90
15707;DHT22;7953;54.302;10.128;2022-10-31T00:18:41;13.60;99.90
15707;DHT22;7953;54.302;10.128;2022-10-31T00:21:08;13.60;99.90
15707;DHT22;7953;54.302;10.128;2022-10-31T00:23:35;13.60;99.90
15707;DHT22;7953;54.302;10.128;2022-10-31T00:26:04;13.70;99.90
15707;DHT22;7953;54.302;10.128;2022-10-31T00:28:32;13.60;99.90
15707;DHT22;7953;54.302;10.128;2022-10-31T00:30:59;13.60;99.90
15707;DHT22;7953;54.302;10.128;2022-10-31T00:33:26;13.60;99.90
15707;DHT22;7953;54.302;10.128;2022-10-31T00:35:53;13.60;99.90
15707;DHT22;7953;54.302;10.128;2022-10-31T00:38:21;13.60;99.90
15707;DHT22;7953;54.302;10.128;2022-10-31T00:40:48;13.60;99.90
15707;DHT22;7953;54.302;10.128;2022-10-31T00:43:16;13.50;99.90
15707;DHT22;7953;54.302;10.128;2022-10-31T00:45:43;13.50;99.90
15707;DHT22;7953;54.302;10.128;2022-10-31T00:48:10;13.50;99.90
15707;DHT22;7953;54.302;10.128;2022-10-31T00:50:37;13.50;99.90
15707;DHT22;7953;54.302;10.128;2022-10-31T00:53:05;13.40;99.90
15707;DHT22;7953;54.302;10.128;2022-10-31T00:55:32;13.40;99.90
15707;DHT22;7953;54.302;10.128;2022-10-31T00:57:59;13.40;99.90
15707;DHT22;7953;54.302;10.128;2022-10-31T01:00:27;13.40;99.90
15707;DHT22;7953;54.302;10.128;2022-10-31T01:02:54;13.40;99.90
15707;DHT22;7953;54.302;10.128;2022-10-31T01:05:20;13.40;99.90
15707;DHT22;7953;54.302;10.128;2022-10-31T01:07:47;13.40;99.90
15707;DHT22;7953;54.302;10.128;2022-10-31T01:10:14;13.40;99.90
15707;DHT22;7953;54.302;10.128;2022-10-31T01:12:45;13.40;99.90
15707;DHT22;7953;54.302;10.128;2022-10-31T01:15:13;13.30;99.90
15707;DHT22;7953;54.302;10.128;2022-10-31T01:17:42;13.30;99.90
15707;DHT22;7953;54.302;10.128;2022-10-31T01:20:10;13.30;99.90
15707;DHT22;7953;54.302;10.128;2022-10-31T01:22:37;13.30;99.90
15707;DHT22;7953;54.302;10.128;2022-10-31T01:25:05;13.20;99.90
15707;DHT22;7953;54.302;10.128;2022-10-31T01:27:33;13.20;99.90
15707;DHT22;7953;54.302;10.128;2022-10-31T01:29:59;13.10;99.90
15707;DHT22;7953;54.302;10.128;2022-10-31T01:32:26;13.10;99.90
15707;DHT22;7953;54.302;10.128;2022-10-31T01:34:55;13.20;99.90
15707;DHT22;7953;54.302;10.128;2022-10-31T01:37:22;13.10;99.90
15707;DHT22;7953;54.302;10.128;2022-10-31T01:39:49;13.10;99.90
15707;DHT22;7953;54.302;10.128;2022-10-31T01:42:19;13.10;99.90
15707;DHT22;7953;54.302;10.128;2022-10-31T01:44:55;13.10;99.90
15707;DHT22;7953;54.302;10.128;2022-10-31T01:47:39;13.00;99.90
15707;DHT22;7953;54.302;10.128;2022-10-31T01:50:13;13.10;99.90
15707;DHT22;7953;54.302;10.128;2022-10-31T01:52:44;13.10;99.90
15707;DHT22;7953;54.302;10.128;2022-10-31T01:55:14;13.10;99.90
15707;DHT22;7953;54.302;10.128;2022-10-31T01:57:45;13.10;99.90
15707;DHT22;7953;54.302;10.128;2022-10-31T02:00:13;13.10;99.90
15707;DHT22;7953;54.302;10.128;2022-10-31T02:02:40;13.20;99.90
15707;DHT22;7953;54.302;10.128;2022-10-31T02:05:12;13.10;99.90
15707;DHT22;7953;54.302;10.128;2022-10-31T02:07:45;13.10;99.90
15707;DHT22;7953;54.302;10.128;2022-10-31T02:10:15;13.20;99.90
15707;DHT22;7953;54.302;10.128;2022-10-31T02:12:44;13.20;99.90
15707;DHT22;7953;54.302;10.128;2022-10-31T02:15:11;13.20;99.90
15707;DHT22;7953;54.302;10.128;2022-10-31T02:17:38;13.20;99.90
15707;DHT22;7953;54.302;10.128;2022-10-31T02:20:14;13.20;99.90
15707;DHT22;7953;54.302;10.128;2022-10-31T02:22:56;13.20;99.90
15707;DHT22;7953;54.302;10.128;2022-10-31T02:25:46;13.30;99.90
15707;DHT22;7953;54.302;10.128;2022-10-31T02:28:34;13.30;99.90
15707;DHT22;7953;54.302;10.128;2022-10-31T02:31:18;13.30;99.90
15707;DHT22;7953;54.302;10.128;2022-10-31T02:33:50;13.30;99.90
15707;DHT22;7953;54.302;10.128;2022-10-31T02:36:24;13.20;99.90
15707;DHT22;7953;54.302;10.128;2022-10-31T02:39:02;13.20;99.90
15707;DHT22;7953;54.302;10.128;2022-10-31T02:41:41;13.10;99.90
15707;DHT22;7953;54.302;10.128;2022-10-31T02:44:16;13.10;99.90
15707;DHT22;7953;54.302;10.128;2022-10-31T02:46:50;13.00;99.90
15707;DHT22;7953;54.302;10.128;2022-10-31T02:49:24;13.00;99.90
15707;DHT22;7953;54.302;10.128;2022-10-31T02:51:54;13.00;99.90
15707;DHT22;7953;54.302;10.128;2022-10-31T02:54:22;13.10;99.90
15707;DHT22;7953;54.302;10.128;2022-10-31T02:56:52;13.10;99.90
15707;DHT22;7953;54.302;10.128;2022-10-31T02:59:20;13.20;99.90
15707;DHT22;7953;54.302;10.128;2022-10-31T03:02:28;13.20;99.90
15707;DHT22;7953;54.302;10.128;2022-10-31T03:05:28;13.20;99.90
15707;DHT22;7953;54.302;10.128;2022-10-31T03:08:03;13.20;99.90
15707;DHT22;7953;54.302;10.128;2022-10-31T03:10:39;13.20;99.90
15707;DHT22;7953;54.302;10.128;2022-10-31T03:13:10;13.20;99.90
15707;DHT22;7953;54.302;10.128;2022-10-31T03:15:42;13.20;99.90
15707;DHT22;7953;54.302;10.128;2022-10-31T03:18:14;13.10;99.90
15707;DHT22;7953;54.302;10.128;2022-10-31T03:20:47;13.20;99.90
15707;DHT22;7953;54.302;10.128;2022-10-31T03:23:18;13.20;99.90
15707;DHT22;7953;54.302;10.128;2022-10-31T03:25:47;13.20;99.90
15707;DHT22;7953;54.302;10.128;2022-10-31T03:28:16;13.20;99.90
15707;DHT22;7953;54.302;10.128;2022-10-31T03:30:46;13.20;99.90
15707;DHT22;7953;54.302;10.128;2022-10-31T03:33:17;13.20;99.90
15707;DHT22;7953;54.302;10.128;2022-10-31T03:35:47;13.20;99.90
15707;DHT22;7953;54.302;10.128;2022-10-31T03:38:15;13.20;99.90
15707;DHT22;7953;54.302;10.128;2022-10-31T03:40:43;13.20;99.90
15707;DHT22;7953;54.302;10.128;2022-10-31T03:43:16;13.20;99.90
15707;DHT22;7953;54.302;10.128;2022-10-31T03:45:45;13.10;99.90
15707;DHT22;7953;54.302;10.128;2022-10-31T03:48:16;13.20;99.90
15707;DHT22;7953;54.302;10.128;2022-10-31T03:50:50;13.20;99.90
15707;DHT22;7953;54.302;10.128;2022-10-31T03:53:22;13.20;99.90
15707;DHT22;7953;54.302;10.128;2022-10-31T03:55:54;13.20;99.90
15707;DHT22;7953;54.302;10.128;2022-10-31T03:58:27;13.10;99.90
15707;DHT22;7953;54.302;10.128;2022-10-31T04:00:56;13.20;99.90
15707;DHT22;7953;54.302;10.128;2022-10-31T04:03:26;13.10;99.90
15707;DHT22;7953;54.302;10.128;2022-10-31T04:05:55;13.20;99.90
15707;DHT22;7953;54.302;10.128;2022-10-31T04:08:27;13.20;99.90
15707;DHT22;7953;54.302;10.128;2022-10-31T04:10:56;13.20;99.90
15707;DHT22;7953;54.302;10.128;2022-10-31T04:13:27;13.30;99.90
15707;DHT22;7953;54.302;10.128;2022-10-31T04:15:55;13.30;99.90
15707;DHT22;7953;54.302;10.128;2022-10-31T04:18:23;13.20;99.90
15707;DHT22;7953;54.302;10.128;2022-10-31T04:21:00;13.20;99.90
15707;DHT22;7953;54.302;10.128;2022-10-31T04:23:27;13.20;99.90
15707;DHT22;7953;54.302;10.128;2022-10-31T04:25:54;13.20;99.90
15707;DHT22;7953;54.302;10.128;2022-10-31T04:28:22;13.20;99.90
15707;DHT22;7953;54.302;10.128;2022-10-31T04:30:49;13.30;99.90
15707;DHT22;7953;54.302;10.128;2022-10-31T04:33:16;13.30;99.90
15707;DHT22;7953;54.302;10.128;2022-10-31T04:35:44;13.30;99.90
15707;DHT22;7953;54.302;10.128;2022-10-31T04:38:12;13.30;99.90
15707;DHT22;7953;54.302;10.128;2022-10-31T04:40:39;13.30;99.90
15707;DHT22;7953;54.302;10.128;2022-10-31T04:43:06;13.40;99.90
15707;DHT22;7953;54.302;10.128;2022-10-31T04:45:33;13.30;99.90
15707;DHT22;7953;54.302;10.128;2022-10-31T04:48:00;13.40;99.90
15707;DHT22;7953;54.302;10.128;2022-10-31T04:50:26;13.30;99.90
15707;DHT22;7953;54.302;10.128;2022-10-31T04:52:53;13.30;99.90
15707;DHT22;7953;54.302;10.128;2022-10-31T04:55:22;13.40;99.90
15707;DHT22;7953;54.302;10.128;2022-10-31T04:57:49;13.40;99.90
15707;DHT22;7953;54.302;10.128;2022-10-31T05:00:18;13.30;99.90
15707;DHT22;7953;54.302;10.128;2022-10-31T05:02:46;13.30;99.90
15707;DHT22;7953;54.302;10.128;2022-10-31T05:05:13;13.30;99.90
15707;DHT22;7953;54.302;10.128;2022-10-31T05:07:41;13.30;99.90
15707;DHT22;7953;54.302;10.128;2022-10-31T05:10:09;13.20;99.90
15707;DHT22;7953;54.302;10.128;2022-10-31T05:12:38;13.30;99.90
15707;DHT22;7953;54.302;10.128;2022-10-31T05:15:11;13.20;99.90
15707;DHT22;7953;54.302;10.128;2022-10-31T05:17:38;13.20;99.90
15707;DHT22;7953;54.302;10.128;2022-10-31T05:20:05;13.30;99.90
15707;DHT22;7953;54.302;10.128;2022-10-31T05:22:32;13.20;99.90
15707;DHT22;7953;54.302;10.128;2022-10-31T05:24:59;13.30;99.90
15707;DHT22;7953;54.302;10.128;2022-10-31T05:27:26;13.20;99.90
15707;DHT22;7953;54.302;10.128;2022-10-31T05:29:54;13.20;99.90
15707;DHT22;7953;54.302;10.128;2022-10-31T05:32:21;13.20;99.90
15707;DHT22;7953;54.302;10.128;2022-10-31T05:34:48;13.20;99.90
15707;DHT22;7953;54.302;10.128;2022-10-31T05:37:15;13.20;99.90
15707;DHT22;7953;54.302;10.128;2022-10-31T05:39:42;13.30;99.90
15707;DHT22;7953;54.302;10.128;2022-10-31T05:42:08;13.20;99.90
15707;DHT22;7953;54.302;10.128;2022-10-31T05:44:35;13.30;99.90
15707;DHT22;7953;54.302;10.128;2022-10-31T05:47:04;13.30;99.90
15707;DHT22;7953;54.302;10.128;2022-10-31T05:49:31;13.30;99.90
15707;DHT22;7953;54.302;10.128;2022-10-31T05:51:58;13.30;99.90
15707;DHT22;7953;54.302;10.128;2022-10-31T05:54:25;13.20;99.90
15707;DHT22;7953;54.302;10.128;2022-10-31T05:56:52;13.30;99.90
15707;DHT22;7953;54.302;10.128;2022-10-31T05:59:19;13.20;99.90
15707;DHT22;7953;54.302;10.128;2022-10-31T06:01:46;13.20;99.90
15707;DHT22;7953;54.302;10.128;2022-10-31T06:04:14;13.20;99.90
15707;DHT22;7953;54.302;10.128;2022-10-31T06:06:41;13.20;99.90
15707;DHT22;7953;54.302;10.128;2022-10-31T06:09:08;13.20;99.90
15707;DHT22;7953;54.302;10.128;2022-10-31T06:11:35;13.10;99.90
15707;DHT22;7953;54.302;10.128;2022-10-31T06:14:02;13.20;99.90
15707;DHT22;7953;54.302;10.128;2022-10-31T06:16:29;13.20;99.90
15707;DHT22;7953;54.302;10.128;2022-10-31T06:18:56;13.10;99.90
15707;DHT22;7953;54.302;10.128;2022-10-31T06:21:31;13.10;99.90
15707;DHT22;7953;54.302;10.128;2022-10-31T06:24:01;13.00;99.90
15707;DHT22;7953;54.302;10.128;2022-10-31T06:26:31;13.00;99.90
15707;DHT22;7953;54.302;10.128;2022-10-31T06:29:01;13.10;99.90
15707;DHT22;7953;54.302;10.128;2022-10-31T06:31:31;13.00;99.90
15707;DHT22;7953;54.302;10.128;2022-10-31T06:34:00;13.00;99.90
15707;DHT22;7953;54.302;10.128;2022-10-31T06:36:28;13.10;99.90
15707;DHT22;7953;54.302;10.128;2022-10-31T06:39:04;13.10;99.90
15707;DHT22;7953;54.302;10.128;2022-10-31T06:41:31;13.10;99.90
15707;DHT22;7953;54.302;10.128;2022-10-31T06:43:57;13.10;99.90
15707;DHT22;7953;54.302;10.128;2022-10-31T06:46:24;13.10;99.90
15707;DHT22;7953;54.302;10.128;2022-10-31T06:48:56;13.10;99.90
15707;DHT22;7953;54.302;10.128;2022-10-31T06:51:47;13.10;99.90
15707;DHT22;7953;54.302;10.128;2022-10-31T06:54:19;13.10;99.90
15707;DHT22;7953;54.302;10.128;2022-10-31T06:57:00;13.10;99.90
15707;DHT22;7953;54.302;10.128;2022-10-31T06:59:34;13.10;99.90
15707;DHT22;7953;54.302;10.128;2022-10-31T07:02:04;13.10;99.90
15707;DHT22;7953;54.302;10.128;2022-10-31T07:04:34;13.10;99.90
15707;DHT22;7953;54.302;10.128;2022-10-31T07:07:17;13.10;99.90
15707;DHT22;7953;54.302;10.128;2022-10-31T07:17:08;13.10;99.90
15707;DHT22;7953;54.302;10.128;2022-10-31T07:19:47;13.10;99.90
15707;DHT22;7953;54.302;10.128;2022-10-31T07:22:18;13.10;99.90
15707;DHT22;7953;54.302;10.128;2022-10-31T07:24:45;13.10;99.90
15707;DHT22;7953;54.302;10.128;2022-10-31T07:27:24;13.10;99.90
15707;DHT22;7953;54.302;10.128;2022-10-31T07:29:57;13.00;99.90
15707;DHT22;7953;54.302;10.128;2022-10-31T07:35:25;13.10;99.90
15707;DHT22;7953;54.302;10.128;2022-10-31T07:37:56;13.10;99.90
15707;DHT22;7953;54.302;10.128;2022-10-31T07:40:26;13.10;99.90
15707;DHT22;7953;54.302;10.128;2022-10-31T07:42:59;13.20;99.90
15707;DHT22;7953;54.302;10.128;2022-10-31T07:45:29;13.20;99.90
15707;DHT22;7953;54.302;10.128;2022-10-31T07:47:56;13.30;99.90
15707;DHT22;7953;54.302;10.128;2022-10-31T07:50:27;13.20;99.90
15707;DHT22;7953;54.302;10.128;2022-10-31T07:53:13;13.20;99.90
15707;DHT22;7953;54.302;10.128;2022-10-31T07:55:43;13.20;99.90
15707;DHT22;7953;54.302;10.128;2022-10-31T07:58:11;13.30;99.90
15707;DHT22;7953;54.302;10.128;2022-10-31T08:00:43;13.30;99.90
15707;DHT22;7953;54.302;10.128;2022-10-31T08:03:19;13.20;99.90
15707;DHT22;7953;54.302;10.128;2022-10-31T08:06:08;13.20;99.90
15707;DHT22;7953;54.302;10.128;2022-10-31T08:09:04;13.20;99.90
15707;DHT22;7953;54.302;10.128;2022-10-31T08:11:37;13.20;99.90
15707;DHT22;7953;54.302;10.128;2022-10-31T08:14:05;13.20;99.90
15707;DHT22;7953;54.302;10.128;2022-10-31T08:16:36;13.20;99.90
15707;DHT22;7953;54.302;10.128;2022-10-31T08:19:12;13.20;99.90
15707;DHT22;7953;54.302;10.128;2022-10-31T08:21:53;13.20;99.90
15707;DHT22;7953;54.302;10.128;2022-10-31T08:24:28;13.10;99.90
15707;DHT22;7953;54.302;10.128;2022-10-31T08:26:55;13.20;99.90
15707;DHT22;7953;54.302;10.128;2022-10-31T08:29:22;13.10;99.90
15707;DHT22;7953;54.302;10.128;2022-10-31T08:31:49;13.10;99.90
15707;DHT22;7953;54.302;10.128;2022-10-31T08:34:16;13.10;99.90
15707;DHT22;7953;54.302;10.128;2022-10-31T08:36:49;13.10;99.90
15707;DHT22;7953;54.302;10.128;2022-10-31T08:39:26;13.10;99.90
15707;DHT22;7953;54.302;10.128;2022-10-31T08:42:05;13.10;99.90
15707;DHT22;7953;54.302;10.128;2022-10-31T08:44:36;13.10;99.90
15707;DHT22;7953;54.302;10.128;2022-10-31T08:47:19;13.10;99.90
15707;DHT22;7953;54.302;10.128;2022-10-31T08:49:49;13.10;99.90
15707;DHT22;7953;54.302;10.128;2022-10-31T08:55:22;13.10;99.90
15707;DHT22;7953;54.302;10.128;2022-10-31T08:58:13;13.10;99.90
15707;DHT22;7953;54.302;10.128;2022-10-31T09:00:48;13.10;99.90
15707;DHT22;7953;54.302;10.128;2022-10-31T09:03:20;13.10;99.90
15707;DHT22;7953;54.302;10.128;2022-10-31T09:05:55;13.00;99.90
15707;DHT22;7953;54.302;10.128;2022-10-31T09:08:26;13.00;99.90
15707;DHT22;7953;54.302;10.128;2022-10-31T09:11:07;13.10;99.90
15707;DHT22;7953;54.302;10.128;2022-10-31T09:13:47;13.10;99.90
15707;DHT22;7953;54.302;10.128;2022-10-31T09:16:14;13.10;99.90
15707;DHT22;7953;54.302;10.128;2022-10-31T09:21:26;13.10;99.90
15707;DHT22;7953;54.302;10.128;2022-10-31T09:23:56;13.10;99.90
15707;DHT22;7953;54.302;10.128;2022-10-31T09:26:22;13.10;99.90
15707;DHT22;7953;54.302;10.128;2022-10-31T09:28:51;13.10;99.90
15707;DHT22;7953;54.302;10.128;2022-10-31T09:31:17;13.10;99.90
15707;DHT22;7953;54.302;10.128;2022-10-31T09:33:44;13.10;99.90
15707;DHT22;7953;54.302;10.128;2022-10-31T09:36:11;13.20;99.90
15707;DHT22;7953;54.302;10.128;2022-10-31T09:38:39;13.20;99.90
15707;DHT22;7953;54.302;10.128;2022-10-31T09:41:14;13.20;99.90
15707;DHT22;7953;54.302;10.128;2022-10-31T09:43:52;13.20;99.90
15707;DHT22;7953;54.302;10.128;2022-10-31T09:46:29;13.20;99.90
15707;DHT22;7953;54.302;10.128;2022-10-31T09:49:23;13.20;99.90
15707;DHT22;7953;54.302;10.128;2022-10-31T09:51:55;13.30;99.90
15707;DHT22;7953;54.302;10.128;2022-10-31T09:54:28;13.30;99.90
15707;DHT22;7953;54.302;10.128;2022-10-31T09:56:57;13.40;99.90
15707;DHT22;7953;54.302;10.128;2022-10-31T09:59:30;13.40;99.90
15707;DHT22;7953;54.302;10.128;2022-10-31T10:02:02;13.40;99.90
15707;DHT22;7953;54.302;10.128;2022-10-31T10:04:36;13.50;99.90
15707;DHT22;7953;54.302;10.128;2022-10-31T10:07:11;13.40;99.90
15707;DHT22;7953;54.302;10.128;2022-10-31T10:09:38;13.50;99.90
15707;DHT22;7953;54.302;10.128;2022-10-31T10:12:13;13.50;99.90
15707;DHT22;7953;54.302;10.128;2022-10-31T10:14:52;13.50;99.90
15707;DHT22;7953;54.302;10.128;2022-10-31T10:17:32;13.50;99.90
15707;DHT22;7953;54.302;10.128;2022-10-31T10:20:25;13.60;99.90
15707;DHT22;7953;54.302;10.128;2022-10-31T10:23:05;13.60;99.90
15707;DHT22;7953;54.302;10.128;2022-10-31T10:25:38;13.70;99.90
15707;DHT22;7953;54.302;10.128;2022-10-31T10:28:13;13.70;99.90
15707;DHT22;7953;54.302;10.128;2022-10-31T10:30:47;13.70;99.90
15707;DHT22;7953;54.302;10.128;2022-10-31T10:33:19;13.80;99.90
15707;DHT22;7953;54.302;10.128;2022-10-31T10:35:50;13.90;99.90
15707;DHT22;7953;54.302;10.128;2022-10-31T10:38:25;14.00;99.90
15707;DHT22;7953;54.302;10.128;2022-10-31T10:40:54;14.10;99.90
15707;DHT22;7953;54.302;10.128;2022-10-31T10:43:24;14.10;99.90
15707;DHT22;7953;54.302;10.128;2022-10-31T10:46:00;14.10;99.90
15707;DHT22;7953;54.302;10.128;2022-10-31T10:48:51;14.10;99.90
15707;DHT22;7953;54.302;10.128;2022-10-31T10:51:23;14.10;99.90
15707;DHT22;7953;54.302;10.128;2022-10-31T10:54:03;14.10;99.90
15707;DHT22;7953;54.302;10.128;2022-10-31T10:56:52;14.10;99.90
15707;DHT22;7953;54.302;10.128;2022-10-31T10:59:21;14.10;99.90
15707;DHT22;7953;54.302;10.128;2022-10-31T11:01:51;14.10;99.90
15707;DHT22;7953;54.302;10.128;2022-10-31T11:04:28;14.20;99.90
15707;DHT22;7953;54.302;10.128;2022-10-31T11:07:04;14.10;99.90
15707;DHT22;7953;54.302;10.128;2022-10-31T11:09:31;14.20;99.90
15707;DHT22;7953;54.302;10.128;2022-10-31T11:11:58;14.20;99.90
15707;DHT22;7953;54.302;10.128;2022-10-31T11:14:27;14.30;99.90
15707;DHT22;7953;54.302;10.128;2022-10-31T11:17:09;14.30;99.90
15707;DHT22;7953;54.302;10.128;2022-10-31T11:19:36;14.30;99.90
15707;DHT22;7953;54.302;10.128;2022-10-31T11:22:07;14.30;99.90
15707;DHT22;7953;54.302;10.128;2022-10-31T11:24:39;14.30;99.90
15707;DHT22;7953;54.302;10.128;2022-10-31T11:27:14;14.40;99.90
15707;DHT22;7953;54.302;10.128;2022-10-31T11:29:41;14.40;99.90
15707;DHT22;7953;54.302;10.128;2022-10-31T11:32:18;14.40;99.90
15707;DHT22;7953;54.302;10.128;2022-10-31T11:34:48;14.50;99.90
15707;DHT22;7953;54.302;10.128;2022-10-31T11:37:20;14.50;99.90
15707;DHT22;7953;54.302;10.128;2022-10-31T11:39:50;14.50;99.90
15707;DHT22;7953;54.302;10.128;2022-10-31T11:42:20;14.50;99.90
15707;DHT22;7953;54.302;10.128;2022-10-31T11:44:48;14.50;99.90
15707;DHT22;7953;54.302;10.128;2022-10-31T11:47:23;14.60;99.90
15707;DHT22;7953;54.302;10.128;2022-10-31T11:49:51;14.60;99.90
15707;DHT22;7953;54.302;10.128;2022-10-31T11:52:20;14.60;99.90
15707;DHT22;7953;54.302;10.128;2022-10-31T11:54:50;14.70;99.90
15707;DHT22;7953;54.302;10.128;2022-10-31T11:57:27;14.80;99.90
15707;DHT22;7953;54.302;10.128;2022-10-31T11:59:57;14.90;99.90
15707;DHT22;7953;54.302;10.128;2022-10-31T12:02:26;15.00;99.90
15707;DHT22;7953;54.302;10.128;2022-10-31T12:05:04;15.10;99.90
15707;DHT22;7953;54.302;10.128;2022-10-31T12:07:33;15.10;99.90
15707;DHT22;7953;54.302;10.128;2022-10-31T12:10:00;15.10;99.90
15707;DHT22;7953;54.302;10.128;2022-10-31T12:12:47;15.20;99.90
15707;DHT22;7953;54.302;10.128;2022-10-31T12:15:27;15.20;99.90
15707;DHT22;7953;54.302;10.128;2022-10-31T12:18:06;15.10;99.90
15707;DHT22;7953;54.302;10.128;2022-10-31T12:20:41;15.00;99.90
15707;DHT22;7953;54.302;10.128;2022-10-31T12:23:18;15.00;99.90
15707;DHT22;7953;54.302;10.128;2022-10-31T12:25:51;15.00;99.90
15707;DHT22;7953;54.302;10.128;2022-10-31T12:28:39;15.00;99.90
15707;DHT22;7953;54.302;10.128;2022-10-31T12:31:19;15.10;99.90
15707;DHT22;7953;54.302;10.128;2022-10-31T12:34:00;15.20;99.90
15707;DHT22;7953;54.302;10.128;2022-10-31T12:36:36;15.20;99.90
15707;DHT22;7953;54.302;10.128;2022-10-31T12:39:20;15.10;99.90
15707;DHT22;7953;54.302;10.128;2022-10-31T12:41:52;15.10;99.90
15707;DHT22;7953;54.302;10.128;2022-10-31T12:44:48;15.20;99.90
15707;DHT22;7953;54.302;10.128;2022-10-31T12:47:51;15.20;99.90
15707;DHT22;7953;54.302;10.128;2022-10-31T12:50:35;15.10;99.90
15707;DHT22;7953;54.302;10.128;2022-10-31T12:53:19;15.10;99.90
15707;DHT22;7953;54.302;10.128;2022-10-31T12:55:55;15.10;99.90
15707;DHT22;7953;54.302;10.128;2022-10-31T12:58:27;15.10;99.90
15707;DHT22;7953;54.302;10.128;2022-10-31T13:01:04;15.00;99.90
15707;DHT22;7953;54.302;10.128;2022-10-31T13:03:38;15.10;99.90
15707;DHT22;7953;54.302;10.128;2022-10-31T13:06:16;15.00;99.90
15707;DHT22;7953;54.302;10.128;2022-10-31T13:08:49;15.00;99.90
15707;DHT22;7953;54.302;10.128;2022-10-31T13:11:21;15.00;99.90
15707;DHT22;7953;54.302;10.128;2022-10-31T13:13:56;14.90;99.90
15707;DHT22;7953;54.302;10.128;2022-10-31T13:16:25;14.80;99.90
15707;DHT22;7953;54.302;10.128;2022-10-31T13:18:57;14.70;99.90
15707;DHT22;7953;54.302;10.128;2022-10-31T13:21:36;14.70;99.90
15707;DHT22;7953;54.302;10.128;2022-10-31T13:24:09;14.80;99.90
15707;DHT22;7953;54.302;10.128;2022-10-31T13:26:43;14.80;99.90
15707;DHT22;7953;54.302;10.128;2022-10-31T13:29:17;14.70;99.90
15707;DHT22;7953;54.302;10.128;2022-10-31T13:31:45;14.60;99.90
15707;DHT22;7953;54.302;10.128;2022-10-31T13:34:20;14.60;99.90
15707;DHT22;7953;54.302;10.128;2022-10-31T13:36:56;14.50;99.90
15707;DHT22;7953;54.302;10.128;2022-10-31T13:39:41;14.50;99.90
15707;DHT22;7953;54.302;10.128;2022-10-31T13:42:15;14.50;99.90
15707;DHT22;7953;54.302;10.128;2022-10-31T13:44:44;14.50;99.90
15707;DHT22;7953;54.302;10.128;2022-10-31T13:47:25;14.50;99.90
15707;DHT22;7953;54.302;10.128;2022-10-31T13:50:03;14.60;99.90
15707;DHT22;7953;54.302;10.128;2022-10-31T13:52:32;14.50;99.90
15707;DHT22;7953;54.302;10.128;2022-10-31T13:54:59;14.50;99.90
15707;DHT22;7953;54.302;10.128;2022-10-31T13:57:31;14.50;99.90
15707;DHT22;7953;54.302;10.128;2022-10-31T14:00:00;14.50;99.90
15707;DHT22;7953;54.302;10.128;2022-10-31T14:02:30;14.50;99.90
15707;DHT22;7953;54.302;10.128;2022-10-31T14:04:59;14.30;99.90
15707;DHT22;7953;54.302;10.128;2022-10-31T14:07:28;14.30;99.90
15707;DHT22;7953;54.302;10.128;2022-10-31T14:10:02;14.20;99.90
15707;DHT22;7953;54.302;10.128;2022-10-31T14:12:31;14.20;99.90
15707;DHT22;7953;54.302;10.128;2022-10-31T14:15:04;14.10;99.90
15707;DHT22;7953;54.302;10.128;2022-10-31T14:17:46;14.10;99.90
15707;DHT22;7953;54.302;10.128;2022-10-31T14:20:26;14.10;99.90
15707;DHT22;7953;54.302;10.128;2022-10-31T14:22:58;14.00;99.90
15707;DHT22;7953;54.302;10.128;2022-10-31T14:25:28;14.00;99.90
15707;DHT22;7953;54.302;10.128;2022-10-31T14:27:56;14.00;99.90
15707;DHT22;7953;54.302;10.128;2022-10-31T14:30:26;14.00;99.90
15707;DHT22;7953;54.302;10.128;2022-10-31T14:32:56;14.00;99.90
15707;DHT22;7953;54.302;10.128;2022-10-31T14:35:29;13.90;99.90
15707;DHT22;7953;54.302;10.128;2022-10-31T14:38:07;13.80;99.90
15707;DHT22;7953;54.302;10.128;2022-10-31T14:40:45;13.80;99.90
15707;DHT22;7953;54.302;10.128;2022-10-31T14:43:44;13.70;99.90
15707;DHT22;7953;54.302;10.128;2022-10-31T14:46:18;13.70;99.90
15707;DHT22;7953;54.302;10.128;2022-10-31T14:49:11;13.60;99.90
15707;DHT22;7953;54.302;10.128;2022-10-31T14:51:42;13.50;99.90
15707;DHT22;7953;54.302;10.128;2022-10-31T14:54:14;13.50;99.90
15707;DHT22;7953;54.302;10.128;2022-10-31T14:56:48;13.50;99.90
15707;DHT22;7953;54.302;10.128;2022-10-31T14:59:19;13.50;99.90
15707;DHT22;7953;54.302;10.128;2022-10-31T15:01:56;13.50;99.90
15707;DHT22;7953;54.302;10.128;2022-10-31T15:04:25;13.50;99.90
15707;DHT22;7953;54.302;10.128;2022-10-31T15:06:54;13.50;99.90
15707;DHT22;7953;54.302;10.128;2022-10-31T15:09:26;13.50;99.90
15707;DHT22;7953;54.302;10.128;2022-10-31T15:11:54;13.50;99.90
15707;DHT22;7953;54.302;10.128;2022-10-31T15:14:23;13.50;99.90
15707;DHT22;7953;54.302;10.128;2022-10-31T15:16:51;13.40;99.90
15707;DHT22;7953;54.302;10.128;2022-10-31T15:19:22;13.40;99.90
15707;DHT22;7953;54.302;10.128;2022-10-31T15:21:51;13.50;99.90
15707;DHT22;7953;54.302;10.128;2022-10-31T15:24:32;13.40;99.90
15707;DHT22;7953;54.302;10.128;2022-10-31T15:27:02;13.40;99.90
15707;DHT22;7953;54.302;10.128;2022-10-31T15:29:29;13.40;99.90
15707;DHT22;7953;54.302;10.128;2022-10-31T15:31:58;13.40;99.90
15707;DHT22;7953;54.302;10.128;2022-10-31T15:34:28;13.30;99.90
15707;DHT22;7953;54.302;10.128;2022-10-31T15:36:59;13.30;99.90
15707;DHT22;7953;54.302;10.128;2022-10-31T15:39:26;13.30;99.90
15707;DHT22;7953;54.302;10.128;2022-10-31T15:41:54;13.30;99.90
15707;DHT22;7953;54.302;10.128;2022-10-31T15:44:26;13.30;99.90
15707;DHT22;7953;54.302;10.128;2022-10-31T15:46:57;13.20;99.90
15707;DHT22;7953;54.302;10.128;2022-10-31T15:49:36;13.10;99.90
15707;DHT22;7953;54.302;10.128;2022-10-31T15:52:07;13.10;99.90
15707;DHT22;7953;54.302;10.128;2022-10-31T15:54:43;13.10;99.90
15707;DHT22;7953;54.302;10.128;2022-10-31T15:57:11;13.00;99.90
15707;DHT22;7953;54.302;10.128;2022-10-31T15:59:41;13.00;99.90
15707;DHT22;7953;54.302;10.128;2022-10-31T16:02:12;13.00;99.90
15707;DHT22;7953;54.302;10.128;2022-10-31T16:04:48;13.00;99.90
15707;DHT22;7953;54.302;10.128;2022-10-31T16:07:17;13.00;99.90
15707;DHT22;7953;54.302;10.128;2022-10-31T16:09:53;13.00;99.90
15707;DHT22;7953;54.302;10.128;2022-10-31T16:12:22;13.00;99.90
15707;DHT22;7953;54.302;10.128;2022-10-31T16:14:51;13.00;99.90
15707;DHT22;7953;54.302;10.128;2022-10-31T16:17:20;13.10;99.90